Time;durP1;ratioP1;P1;durP2;ratioP2;P2;SDS_P1;SDS_P2;PMS_P1;PMS_P2;Temp;Humidity;BMP_temperature;BMP_pressure;BME280_temperature;BME280_humidity;BME280_pressure;Samples;Min_cycle;Max_cycle;Signal;HPM_P1;HPM_P2
2023/06/01 00:00:55;;;;;;;5.00;3.90;;;13.50;86.50;;;;;;5040255;28;20478;-60
2023/06/01 00:03:22;;;;;;;6.97;4.67;;;13.50;86.20;;;;;;5064799;28;20519;-60
2023/06/01 00:05:49;;;;;;;4.30;3.90;;;13.50;86.90;;;;;;5062512;28;20475;-61
2023/06/01 00:08:16;;;;;;;9.47;4.70;;;13.40;87.00;;;;;;5043810;28;20476;-60
2023/06/01 00:10:44;;;;;;;8.37;3.63;;;13.40;86.40;;;;;;5041457;28;20731;-61
2023/06/01 00:13:11;;;;;;;6.07;3.57;;;13.30;87.10;;;;;;5062412;28;20482;-60
2023/06/01 00:15:38;;;;;;;4.63;3.37;;;13.30;86.70;;;;;;5059565;28;20476;-61
2023/06/01 00:18:05;;;;;;;5.77;4.00;;;13.30;86.80;;;;;;5052379;28;20499;-61
2023/06/01 00:20:32;;;;;;;4.20;3.70;;;13.30;86.50;;;;;;5059055;28;20503;-61
2023/06/01 00:22:59;;;;;;;12.83;4.30;;;13.40;86.90;;;;;;5054508;28;20478;-61
2023/06/01 00:25:26;;;;;;;8.27;4.53;;;13.40;85.40;;;;;;5046672;28;21053;-61
2023/06/01 00:27:55;;;;;;;7.30;3.27;;;13.40;86.20;;;;;;5061883;28;20486;-60
2023/06/01 00:30:22;;;;;;;4.90;3.60;;;13.40;86.40;;;;;;5072306;28;20529;-60
2023/06/01 00:32:49;;;;;;;5.30;3.53;;;13.40;86.80;;;;;;5067450;28;20490;-60
2023/06/01 00:35:16;;;;;;;6.77;4.13;;;13.40;87.00;;;;;;5070498;28;20463;-60
2023/06/01 00:37:43;;;;;;;6.47;3.77;;;13.30;86.90;;;;;;5065379;28;20491;-61
2023/06/01 00:40:11;;;;;;;6.27;4.00;;;13.30;86.80;;;;;;5060086;28;20481;-60
2023/06/01 00:42:38;;;;;;;4.20;3.70;;;13.20;87.20;;;;;;5057800;28;20474;-60
2023/06/01 00:45:07;;;;;;;4.60;3.70;;;13.10;87.00;;;;;;5067470;28;20937;-60
2023/06/01 00:47:40;;;;;;;8.00;4.50;;;13.00;87.10;;;;;;5058283;28;20507;-60
2023/06/01 00:50:08;;;;;;;8.57;3.83;;;12.90;86.70;;;;;;5051170;28;20508;-60
2023/06/01 00:52:37;;;;;;;4.63;3.60;;;12.90;86.70;;;;;;5062541;28;21093;-60
2023/06/01 00:55:05;;;;;;;5.43;3.63;;;12.90;86.70;;;;;;5069464;28;20493;-60
2023/06/01 00:57:32;;;;;;;6.90;3.97;;;12.90;87.20;;;;;;5074273;28;20567;-60
2023/06/01 00:59:59;;;;;;;4.07;3.67;;;12.90;87.80;;;;;;5062157;28;20555;-61
2023/06/01 01:02:31;;;;;;;6.63;3.63;;;12.80;87.50;;;;;;5064340;28;20908;-60
2023/06/01 01:04:59;;;;;;;5.83;3.60;;;12.70;87.30;;;;;;5041410;28;20822;-60
2023/06/01 01:07:33;;;;;;;5.30;4.40;;;12.70;87.80;;;;;;5061323;28;20549;-60
2023/06/01 01:10:10;;;;;;;9.03;4.00;;;12.70;87.40;;;;;;5043871;28;20471;-61
2023/06/01 01:12:46;;;;;;;3.93;3.57;;;12.70;88.00;;;;;;5064307;28;20546;-60
2023/06/01 01:15:18;;;;;;;6.70;3.90;;;12.70;87.80;;;;;;5073942;28;20466;-60
2023/06/01 01:17:51;;;;;;;5.73;4.13;;;12.80;87.50;;;;;;5066077;28;20493;-60
2023/06/01 01:20:23;;;;;;;9.83;4.30;;;12.70;88.20;;;;;;5057310;28;20482;-60
2023/06/01 01:23:11;;;;;;;6.10;4.27;;;12.70;87.50;;;;;;5079812;28;20482;-61
2023/06/01 01:26:08;;;;;;;4.33;3.10;;;12.70;88.10;;;;;;5064433;28;20773;-60
2023/06/01 01:28:42;;;;;;;6.13;3.77;;;12.70;87.90;;;;;;5062791;28;20516;-60
2023/06/01 01:31:11;;;;;;;5.53;3.83;;;12.70;87.90;;;;;;5063644;28;20554;-60
2023/06/01 01:33:41;;;;;;;4.23;3.83;;;12.60;87.60;;;;;;5062608;28;20481;-60
2023/06/01 01:36:09;;;;;;;5.20;4.10;;;12.40;87.70;;;;;;5070191;28;20824;-60
2023/06/01 01:38:37;;;;;;;8.10;4.10;;;12.40;87.40;;;;;;5061060;28;20566;-60
2023/06/01 01:41:04;;;;;;;4.60;4.07;;;12.30;87.20;;;;;;5064417;28;20491;-60
2023/06/01 01:43:31;;;;;;;5.33;4.07;;;12.30;87.90;;;;;;5067485;28;20476;-59
2023/06/01 01:46:08;;;;;;;7.20;4.10;;;12.40;87.80;;;;;;5064524;28;20465;-60
2023/06/01 01:48:40;;;;;;;5.03;4.00;;;12.40;88.00;;;;;;5055975;28;20486;-59
2023/06/01 01:51:11;;;;;;;4.83;4.00;;;12.40;87.50;;;;;;5049192;28;20856;-59
2023/06/01 01:53:42;;;;;;;4.30;3.90;;;12.40;87.00;;;;;;5069314;28;21185;-59
2023/06/01 01:56:09;;;;;;;8.63;4.83;;;12.40;87.50;;;;;;5041157;28;20475;-59
2023/06/01 01:58:36;;;;;;;6.17;3.60;;;12.30;87.80;;;;;;5068045;28;20551;-59
2023/06/01 02:01:05;;;;;;;5.07;4.30;;;12.20;88.10;;;;;;5063146;28;20508;-59
2023/06/01 02:03:32;;;;;;;4.17;3.80;;;12.10;88.50;;;;;;5059048;28;20551;-59
2023/06/01 02:05:59;;;;;;;4.10;3.60;;;12.10;88.30;;;;;;5069198;28;21018;-59
2023/06/01 02:08:26;;;;;;;4.53;4.13;;;12.00;88.30;;;;;;5064718;28;20481;-60
2023/06/01 02:10:53;;;;;;;4.20;3.80;;;12.00;88.40;;;;;;5058479;28;20482;-60
2023/06/01 02:13:20;;;;;;;4.70;4.17;;;11.90;88.40;;;;;;5060275;28;20473;-59
2023/06/01 02:15:46;;;;;;;4.33;3.93;;;11.90;88.20;;;;;;5058722;28;21062;-60
2023/06/01 02:18:15;;;;;;;5.00;4.50;;;11.80;88.20;;;;;;5053874;28;20683;-60
2023/06/01 02:20:42;;;;;;;10.13;5.63;;;11.80;88.50;;;;;;5063477;28;20478;-60
2023/06/01 02:23:10;;;;;;;4.20;3.63;;;11.80;88.30;;;;;;5019970;28;20499;-59
2023/06/01 02:25:36;;;;;;;5.43;3.87;;;11.90;88.30;;;;;;5059775;28;20486;-60
2023/06/01 02:28:03;;;;;;;4.23;3.83;;;11.90;88.40;;;;;;5072047;28;21005;-60
2023/06/01 02:30:30;;;;;;;4.80;4.03;;;11.90;88.50;;;;;;5057302;28;20462;-59
2023/06/01 02:32:58;;;;;;;5.07;4.00;;;11.90;88.10;;;;;;5058681;28;20591;-59
2023/06/01 02:35:26;;;;;;;4.90;3.77;;;11.80;88.40;;;;;;5054175;28;20571;-60
2023/06/01 02:37:53;;;;;;;5.53;4.33;;;11.80;87.50;;;;;;5056424;28;21144;-60
2023/06/01 02:40:20;;;;;;;6.40;5.00;;;12.50;89.30;;;;;;5068927;28;20481;-60
2023/06/01 02:42:47;;;;;;;4.57;3.50;;;11.80;88.40;;;;;;5066811;28;20915;-59
2023/06/01 02:45:14;;;;;;;8.63;4.40;;;11.80;89.00;;;;;;5056546;28;20906;-59
2023/06/01 02:47:41;;;;;;;5.37;4.70;;;11.80;89.30;;;;;;5068157;28;20514;-59
2023/06/01 02:50:08;;;;;;;7.27;4.90;;;11.80;89.20;;;;;;5032269;28;20826;-59
2023/06/01 02:52:36;;;;;;;7.33;4.13;;;11.80;89.30;;;;;;5054460;28;20483;-59
2023/06/01 02:55:04;;;;;;;6.23;4.30;;;11.80;89.10;;;;;;5028743;28;20490;-59
2023/06/01 02:57:31;;;;;;;5.53;4.10;;;11.80;88.60;;;;;;5045456;28;20492;-59
2023/06/01 02:59:58;;;;;;;8.83;4.30;;;11.80;88.10;;;;;;5037914;28;20487;-60
2023/06/01 03:02:26;;;;;;;4.87;4.40;;;11.70;87.90;;;;;;5042947;28;20795;-59
2023/06/01 03:04:53;;;;;;;5.50;3.50;;;11.60;87.70;;;;;;5042365;28;20580;-60
2023/06/01 03:07:20;;;;;;;10.60;5.17;;;11.60;87.80;;;;;;5053374;28;20475;-59
2023/06/01 03:09:48;;;;;;;4.90;4.40;;;11.40;88.30;;;;;;5047805;28;20485;-59
2023/06/01 03:12:16;;;;;;;6.93;4.27;;;11.20;89.80;;;;;;5038139;28;20483;-60
2023/06/01 03:14:43;;;;;;;5.80;4.20;;;11.00;90.20;;;;;;5024172;28;20486;-59
2023/06/01 03:17:10;;;;;;;4.40;3.87;;;10.80;90.70;;;;;;5056125;28;20824;-59
2023/06/01 03:19:36;;;;;;;6.73;4.40;;;10.90;90.30;;;;;;5033039;28;20499;-59
2023/06/01 03:22:03;;;;;;;8.07;4.50;;;11.00;90.20;;;;;;5048116;28;20475;-59
2023/06/01 03:24:30;;;;;;;5.00;4.17;;;11.00;90.30;;;;;;5053496;28;20475;-59
2023/06/01 03:26:58;;;;;;;15.93;4.00;;;11.00;90.40;;;;;;5052354;28;20986;-59
2023/06/01 03:29:25;;;;;;;6.03;4.00;;;11.10;90.30;;;;;;5056361;28;20483;-60
2023/06/01 03:31:52;;;;;;;4.13;3.73;;;11.20;89.80;;;;;;5037865;28;20542;-59
2023/06/01 03:34:20;;;;;;;6.03;4.00;;;11.20;89.70;;;;;;5050994;28;21026;-59
2023/06/01 03:36:47;;;;;;;4.90;4.13;;;11.20;89.50;;;;;;5058369;28;20475;-59
2023/06/01 03:39:15;;;;;;;3.97;3.67;;;11.20;89.40;;;;;;5039521;28;21284;-60
2023/06/01 03:41:43;;;;;;;6.70;4.13;;;11.20;88.80;;;;;;5048644;28;20487;-59
2023/06/01 03:44:12;;;;;;;7.70;3.97;;;11.20;89.10;;;;;;5050135;28;20494;-60
2023/06/01 03:46:40;;;;;;;5.20;4.67;;;11.20;89.00;;;;;;5039518;28;20498;-59
2023/06/01 03:49:07;;;;;;;6.33;3.97;;;11.20;89.40;;;;;;5049968;28;20533;-59
2023/06/01 03:51:35;;;;;;;10.13;5.60;;;11.20;90.00;;;;;;5054149;28;21175;-60
2023/06/01 03:54:02;;;;;;;6.70;3.90;;;11.20;89.20;;;;;;5039256;28;20536;-59
2023/06/01 03:56:28;;;;;;;6.70;4.50;;;11.20;90.00;;;;;;5051326;28;20887;-59
2023/06/01 03:58:55;;;;;;;4.77;3.97;;;11.20;89.80;;;;;;5050876;28;20479;-59
2023/06/01 04:01:24;;;;;;;10.03;5.87;;;11.20;89.20;;;;;;5050009;28;20487;-59
2023/06/01 04:03:50;;;;;;;3.80;3.40;;;11.10;89.20;;;;;;5053567;28;20518;-59
2023/06/01 04:06:18;;;;;;;4.87;4.37;;;11.10;88.60;;;;;;5053254;28;20491;-59
2023/06/01 04:08:49;;;;;;;5.60;4.03;;;11.10;89.80;;;;;;5056495;28;20491;-59
2023/06/01 04:11:16;;;;;;;6.70;4.90;;;11.10;90.10;;;;;;5022338;28;20513;-59
2023/06/01 04:13:43;;;;;;;7.67;4.17;;;11.10;90.00;;;;;;5058621;28;21007;-59
2023/06/01 04:16:10;;;;;;;4.47;4.00;;;11.20;89.90;;;;;;5045081;28;20740;-59
2023/06/01 04:18:38;;;;;;;6.63;4.50;;;11.20;89.80;;;;;;5043696;28;20923;-59
2023/06/01 04:21:06;;;;;;;6.63;5.00;;;11.20;90.00;;;;;;5045648;28;20491;-59
2023/06/01 04:23:33;;;;;;;10.43;4.83;;;11.20;90.30;;;;;;5035797;28;20484;-59
2023/06/01 04:26:02;;;;;;;10.90;5.13;;;11.30;90.50;;;;;;5052152;28;20698;-59
2023/06/01 04:28:29;;;;;;;6.83;4.10;;;11.30;90.30;;;;;;5038824;28;20891;-59
2023/06/01 04:30:57;;;;;;;7.70;3.80;;;11.30;90.20;;;;;;5044966;28;20506;-59
2023/06/01 04:33:24;;;;;;;4.60;4.20;;;11.40;90.20;;;;;;5054827;28;20486;-59
2023/06/01 04:35:53;;;;;;;5.17;4.40;;;11.40;90.00;;;;;;5029002;28;20834;-59
2023/06/01 04:38:20;;;;;;;5.50;4.27;;;11.50;90.10;;;;;;5049393;28;21494;-59
2023/06/01 04:40:47;;;;;;;4.93;4.20;;;11.50;90.50;;;;;;5035818;28;20489;-59
2023/06/01 04:43:18;;;;;;;5.47;4.50;;;11.50;90.70;;;;;;5046755;28;21008;-59
2023/06/01 04:45:46;;;;;;;11.40;4.30;;;11.50;91.00;;;;;;5047212;28;20539;-59
2023/06/01 04:48:16;;;;;;;6.00;5.33;;;11.60;91.40;;;;;;5039778;28;20464;-59
2023/06/01 04:50:44;;;;;;;6.50;4.90;;;11.70;91.30;;;;;;5022172;28;20983;-58
2023/06/01 04:53:12;;;;;;;5.90;4.73;;;11.80;91.60;;;;;;5034710;28;20480;-59
2023/06/01 04:55:39;;;;;;;4.40;4.00;;;11.90;91.60;;;;;;5028117;28;20585;-59
2023/06/01 04:58:06;;;;;;;6.90;4.80;;;12.00;91.30;;;;;;5055238;28;20648;-59
2023/06/01 05:00:33;;;;;;;5.60;4.13;;;12.10;91.20;;;;;;5059857;28;20838;-59
2023/06/01 05:03:02;;;;;;;4.53;3.90;;;12.20;91.30;;;;;;5027754;28;20495;-59
2023/06/01 05:05:29;;;;;;;8.53;4.93;;;12.40;91.20;;;;;;5058979;28;20492;-59
2023/06/01 05:07:56;;;;;;;5.97;5.27;;;12.50;91.40;;;;;;5050230;28;20834;-59
2023/06/01 05:10:24;;;;;;;6.97;4.83;;;12.70;92.00;;;;;;5030294;28;20475;-59
2023/06/01 05:12:51;;;;;;;4.80;4.00;;;12.80;91.50;;;;;;5033348;28;20479;-59
2023/06/01 05:15:18;;;;;;;7.73;4.10;;;12.90;91.60;;;;;;5057449;28;20490;-59
2023/06/01 05:17:45;;;;;;;5.40;4.90;;;13.10;92.10;;;;;;5048527;28;20498;-59
2023/06/01 05:20:13;;;;;;;7.77;5.53;;;13.30;92.60;;;;;;5032590;28;21366;-60
2023/06/01 05:22:40;;;;;;;6.53;5.63;;;13.40;92.80;;;;;;5057138;28;20471;-59
2023/06/01 05:25:07;;;;;;;14.67;6.57;;;13.60;93.60;;;;;;5047371;28;20477;-60
2023/06/01 05:27:36;;;;;;;7.60;5.50;;;13.80;93.80;;;;;;5051023;28;20498;-60
2023/06/01 05:30:05;;;;;;;10.57;5.20;;;14.00;93.60;;;;;;5044342;28;20857;-60
2023/06/01 05:32:32;;;;;;;12.00;5.90;;;14.40;93.40;;;;;;5047889;28;21258;-60
2023/06/01 05:34:59;;;;;;;7.50;5.73;;;14.40;93.60;;;;;;5043766;28;20488;-60
2023/06/01 05:37:26;;;;;;;6.70;6.00;;;14.60;93.30;;;;;;5053251;28;20479;-60
2023/06/01 05:39:52;;;;;;;11.73;6.13;;;14.90;93.60;;;;;;5035841;28;21197;-59
2023/06/01 05:42:19;;;;;;;13.87;5.90;;;14.90;94.00;;;;;;5047884;28;20475;-60
2023/06/01 05:44:48;;;;;;;10.40;5.30;;;15.00;93.70;;;;;;5041579;28;21022;-60
2023/06/01 05:47:14;;;;;;;11.53;6.00;;;15.00;93.10;;;;;;5048005;28;20483;-60
2023/06/01 05:49:41;;;;;;;8.50;5.80;;;15.30;93.20;;;;;;5045772;28;20503;-60
2023/06/01 05:52:09;;;;;;;6.57;5.90;;;15.40;93.20;;;;;;5053546;28;20474;-60
2023/06/01 05:54:36;;;;;;;10.23;5.30;;;15.60;93.00;;;;;;5056603;28;21556;-60
2023/06/01 05:57:03;;;;;;;11.63;5.10;;;15.80;93.10;;;;;;5046482;28;21044;-60
2023/06/01 05:59:30;;;;;;;9.70;5.50;;;15.90;92.70;;;;;;5046844;28;20482;-60
2023/06/01 06:01:59;;;;;;;7.70;5.00;;;16.10;92.60;;;;;;5042771;28;20475;-60
2023/06/01 06:04:26;;;;;;;5.00;4.57;;;16.30;92.60;;;;;;5055514;28;20486;-60
2023/06/01 06:06:53;;;;;;;7.23;4.73;;;16.50;92.70;;;;;;5052094;28;21096;-60
2023/06/01 06:09:20;;;;;;;7.93;4.57;;;16.70;92.90;;;;;;5039598;28;20832;-60
2023/06/01 06:11:47;;;;;;;8.13;4.77;;;16.80;92.20;;;;;;5055446;28;20479;-60
2023/06/01 06:14:13;;;;;;;15.83;4.67;;;17.20;92.00;;;;;;5045364;28;20484;-60
2023/06/01 06:16:40;;;;;;;9.57;4.33;;;17.40;91.90;;;;;;5051285;28;20524;-60
2023/06/01 06:19:09;;;;;;;7.90;4.90;;;17.50;91.90;;;;;;5032589;28;20884;-60
2023/06/01 06:21:37;;;;;;;8.37;4.87;;;17.70;90.50;;;;;;5056457;28;20857;-60
2023/06/01 06:24:05;;;;;;;6.50;4.57;;;18.00;90.80;;;;;;5050011;28;20493;-60
2023/06/01 06:26:31;;;;;;;5.53;4.00;;;18.10;90.50;;;;;;5038877;28;20495;-60
2023/06/01 06:28:58;;;;;;;9.83;4.13;;;18.30;90.40;;;;;;5051774;28;20483;-59
2023/06/01 06:31:25;;;;;;;5.93;3.63;;;18.50;90.10;;;;;;5042796;28;21193;-59
2023/06/01 06:33:52;;;;;;;7.80;4.80;;;18.60;90.10;;;;;;5049134;28;20513;-60
2023/06/01 06:36:20;;;;;;;9.00;4.40;;;18.80;89.20;;;;;;5048566;28;20480;-59
2023/06/01 06:38:47;;;;;;;4.93;4.00;;;19.00;89.30;;;;;;5049921;28;20476;-59
2023/06/01 06:41:14;;;;;;;9.50;4.17;;;19.20;88.80;;;;;;5053565;28;20482;-60
2023/06/01 06:43:41;;;;;;;4.20;3.10;;;19.30;88.00;;;;;;5040531;28;20993;-60
2023/06/01 06:46:09;;;;;;;8.30;3.90;;;19.50;88.20;;;;;;5051598;28;20484;-60
2023/06/01 06:48:36;;;;;;;10.73;3.97;;;19.80;87.70;;;;;;5052742;28;20471;-60
2023/06/01 06:51:03;;;;;;;4.60;3.30;;;19.90;87.50;;;;;;5055910;28;20474;-60
2023/06/01 06:53:33;;;;;;;7.97;4.50;;;20.00;86.90;;;;;;5055101;28;21307;-60
2023/06/01 06:55:59;;;;;;;4.80;3.60;;;20.20;86.80;;;;;;5059203;28;20494;-59
2023/06/01 06:58:27;;;;;;;7.33;3.70;;;20.50;85.80;;;;;;5055092;28;20895;-60
2023/06/01 07:00:54;;;;;;;6.80;3.70;;;20.90;84.20;;;;;;5047457;28;20487;-60
2023/06/01 07:03:21;;;;;;;7.80;4.23;;;21.00;84.00;;;;;;5050559;28;20895;-59
2023/06/01 07:05:48;;;;;;;5.53;4.00;;;21.20;85.50;;;;;;5040535;28;20574;-60
2023/06/01 07:08:15;;;;;;;7.33;3.30;;;21.50;84.20;;;;;;5054138;28;20859;-60
2023/06/01 07:10:43;;;;;;;7.73;4.23;;;21.70;84.40;;;;;;5052033;28;20628;-60
2023/06/01 07:13:10;;;;;;;7.80;3.93;;;21.90;83.40;;;;;;5042870;28;20487;-60
2023/06/01 07:15:37;;;;;;;5.50;4.00;;;22.10;81.80;;;;;;5046240;28;20503;-60
2023/06/01 07:18:03;;;;;;;4.03;3.00;;;22.40;81.30;;;;;;5059186;28;20489;-60
2023/06/01 07:20:30;;;;;;;4.67;3.43;;;22.50;80.60;;;;;;5052940;28;20495;-60
2023/06/01 07:22:57;;;;;;;10.23;4.83;;;22.90;81.00;;;;;;5057240;28;20494;-60
2023/06/01 07:25:24;;;;;;;9.57;4.03;;;23.10;79.00;;;;;;5058727;28;20476;-61
2023/06/01 07:27:56;;;;;;;3.67;3.07;;;23.40;79.30;;;;;;5049061;28;20480;-61
2023/06/01 07:30:23;;;;;;;9.17;3.93;;;23.50;79.60;;;;;;5059599;28;20486;-61
2023/06/01 07:32:50;;;;;;;6.00;3.33;;;23.80;77.70;;;;;;5056933;28;20873;-61
2023/06/01 07:35:17;;;;;;;5.13;2.97;;;24.00;79.40;;;;;;5059298;28;20556;-61
2023/06/01 07:37:44;;;;;;;4.77;3.50;;;24.20;78.00;;;;;;5056102;28;20515;-60
2023/06/01 07:40:12;;;;;;;5.83;3.40;;;24.40;77.70;;;;;;5050506;28;21023;-61
2023/06/01 07:42:39;;;;;;;3.83;2.70;;;24.60;77.00;;;;;;5050989;28;20480;-61
2023/06/01 07:45:09;;;;;;;4.20;3.30;;;24.70;77.50;;;;;;5051775;28;20482;-61
2023/06/01 07:47:36;;;;;;;6.50;3.40;;;24.80;75.70;;;;;;5060601;28;20489;-61
2023/06/01 07:50:02;;;;;;;8.27;4.40;;;24.90;75.70;;;;;;5057187;28;20482;-61
2023/06/01 07:52:29;;;;;;;5.50;3.43;;;25.10;75.60;;;;;;5055322;28;20937;-61
2023/06/01 07:54:56;;;;;;;8.73;2.97;;;25.20;75.30;;;;;;5043037;28;20507;-61
2023/06/01 07:57:23;;;;;;;8.50;3.40;;;25.30;74.50;;;;;;5050134;28;20922;-61
2023/06/01 07:59:50;;;;;;;8.50;3.10;;;25.40;74.20;;;;;;5055820;28;20977;-61
2023/06/01 08:02:20;;;;;;;4.53;3.60;;;25.60;74.20;;;;;;5054007;28;20489;-60
2023/06/01 08:04:47;;;;;;;5.00;3.30;;;25.70;74.50;;;;;;5058607;28;20481;-60
2023/06/01 08:07:16;;;;;;;6.13;3.83;;;25.90;74.70;;;;;;5048615;28;21473;-60
2023/06/01 08:09:43;;;;;;;10.80;3.43;;;25.90;73.50;;;;;;5059349;28;21040;-61
2023/06/01 08:12:11;;;;;;;3.63;3.23;;;26.10;74.60;;;;;;5040326;28;20513;-60
2023/06/01 08:14:38;;;;;;;4.60;2.87;;;26.30;75.10;;;;;;5046936;28;20919;-60
2023/06/01 08:17:06;;;;;;;5.00;3.17;;;26.40;73.70;;;;;;5039634;28;20482;-60
2023/06/01 08:19:35;;;;;;;11.53;4.10;;;26.70;73.90;;;;;;5057054;28;20506;-61
2023/06/01 08:22:04;;;;;;;11.80;3.80;;;26.80;73.30;;;;;;5053356;28;20489;-60
2023/06/01 08:24:32;;;;;;;11.13;3.83;;;27.00;71.70;;;;;;5053125;28;20972;-61
2023/06/01 08:26:59;;;;;;;4.73;3.30;;;27.00;70.80;;;;;;5053229;28;20523;-61
2023/06/01 08:29:26;;;;;;;3.77;2.97;;;27.20;71.00;;;;;;5049349;28;20601;-60
2023/06/01 08:31:53;;;;;;;8.33;3.60;;;27.30;71.20;;;;;;5057416;28;20664;-60
2023/06/01 08:34:20;;;;;;;11.63;3.37;;;27.40;69.80;;;;;;5060462;28;20485;-60
2023/06/01 08:36:48;;;;;;;3.80;3.17;;;27.50;70.20;;;;;;5051976;28;20488;-60
2023/06/01 08:39:23;;;;;;;8.37;3.60;;;27.70;68.30;;;;;;5054087;28;20482;-61
2023/06/01 08:42:03;;;;;;;5.63;3.80;;;27.70;68.00;;;;;;5047587;28;20474;-60
2023/06/01 08:44:37;;;;;;;7.90;3.67;;;27.90;68.80;;;;;;5038172;28;20474;-60
2023/06/01 08:47:04;;;;;;;4.87;3.07;;;27.90;68.40;;;;;;5046187;28;20554;-61
2023/06/01 08:49:32;;;;;;;6.63;3.27;;;28.00;68.60;;;;;;5037063;28;20497;-61
2023/06/01 08:52:03;;;;;;;4.90;2.57;;;28.10;66.80;;;;;;5040211;28;21279;-61
2023/06/01 08:54:30;;;;;;;6.40;3.00;;;28.20;68.10;;;;;;5048469;28;20597;-61
2023/06/01 08:57:02;;;;;;;5.83;4.10;;;28.30;68.00;;;;;;5042325;28;21369;-61
2023/06/01 08:59:30;;;;;;;5.33;2.60;;;28.20;64.40;;;;;;5031869;28;21009;-61
2023/06/01 09:01:58;;;;;;;7.50;3.57;;;28.30;67.40;;;;;;5045933;28;20491;-61
2023/06/01 09:04:25;;;;;;;5.30;3.20;;;28.40;66.70;;;;;;5033225;28;20487;-61
2023/06/01 09:06:52;;;;;;;5.67;3.37;;;28.40;66.70;;;;;;5042265;28;20494;-61
2023/06/01 09:09:21;;;;;;;13.30;3.90;;;28.60;67.40;;;;;;5040019;28;21039;-61
2023/06/01 09:11:48;;;;;;;4.50;3.70;;;28.80;67.20;;;;;;5037929;28;20490;-61
2023/06/01 09:14:22;;;;;;;4.43;3.10;;;28.80;68.00;;;;;;5043285;28;20896;-61
2023/06/01 09:16:50;;;;;;;10.03;3.53;;;29.00;67.60;;;;;;5066529;28;20493;-61
2023/06/01 09:19:18;;;;;;;4.40;3.27;;;29.10;65.70;;;;;;5044642;28;21132;-61
2023/06/01 09:21:57;;;;;;;7.23;3.50;;;29.10;64.60;;;;;;5038595;28;20482;-61
2023/06/01 09:24:26;;;;;;;5.80;3.70;;;29.10;64.40;;;;;;5027223;28;20489;-61
2023/06/01 09:27:00;;;;;;;5.03;3.03;;;29.20;65.20;;;;;;5056170;28;20483;-62
2023/06/01 09:29:27;;;;;;;8.93;3.60;;;29.30;64.20;;;;;;5028416;28;20951;-62
2023/06/01 09:31:55;;;;;;;6.43;4.00;;;29.30;64.40;;;;;;5050485;28;20557;-62
2023/06/01 09:34:22;;;;;;;8.13;3.13;;;29.40;66.50;;;;;;5043929;28;20999;-62
2023/06/01 09:36:51;;;;;;;9.30;3.60;;;29.60;66.10;;;;;;5029908;28;20486;-62
2023/06/01 09:39:19;;;;;;;6.00;3.70;;;29.60;65.80;;;;;;5051107;28;20517;-61
2023/06/01 09:41:49;;;;;;;8.20;3.40;;;29.70;64.40;;;;;;5054219;28;20569;-61
2023/06/01 09:44:25;;;;;;;12.10;3.97;;;29.90;64.10;;;;;;5053976;28;20509;-61
2023/06/01 09:46:54;;;;;;;6.97;3.83;;;29.90;64.50;;;;;;5023931;28;20443;-62
2023/06/01 09:49:24;;;;;;;4.73;3.70;;;30.00;61.70;;;;;;5060688;28;20559;-62
2023/06/01 09:51:52;;;;;;;6.93;2.93;;;30.00;63.30;;;;;;5050361;28;20860;-62
2023/06/01 09:54:30;;;;;;;6.30;3.57;;;29.90;60.00;;;;;;5055935;28;20493;-62
2023/06/01 09:57:00;;;;;;;14.30;4.20;;;30.00;64.20;;;;;;5029856;28;20473;-62
2023/06/01 09:59:29;;;;;;;5.77;3.10;;;30.00;64.20;;;;;;5053219;28;20465;-62
2023/06/01 10:01:58;;;;;;;4.50;3.60;;;29.90;60.10;;;;;;5048404;28;20539;-62
2023/06/01 10:04:27;;;;;;;10.03;3.67;;;29.90;61.00;;;;;;5034872;28;20487;-62
2023/06/01 10:06:55;;;;;;;4.80;2.70;;;29.90;61.70;;;;;;5041658;28;20482;-62
2023/06/01 10:09:24;;;;;;;8.20;3.30;;;30.00;58.40;;;;;;5039717;28;20479;-62
2023/06/01 10:11:53;;;;;;;9.67;3.77;;;30.20;60.30;;;;;;5026445;28;20485;-62
2023/06/01 10:14:22;;;;;;;6.40;3.40;;;30.20;61.00;;;;;;5056160;28;21025;-62
2023/06/01 10:16:51;;;;;;;4.80;2.77;;;30.20;58.90;;;;;;5038529;28;20488;-62
2023/06/01 10:19:18;;;;;;;13.70;3.57;;;30.30;60.90;;;;;;5053177;28;20654;-62
2023/06/01 10:21:46;;;;;;;4.13;3.17;;;30.40;60.60;;;;;;5037342;28;20489;-62
2023/06/01 10:24:14;;;;;;;7.67;4.43;;;30.40;58.30;;;;;;5052665;28;20491;-63
2023/06/01 10:26:46;;;;;;;6.63;2.73;;;30.40;59.20;;;;;;5042451;28;20510;-62
2023/06/01 10:29:14;;;;;;;10.10;3.40;;;30.30;58.20;;;;;;5046137;28;20482;-62
2023/06/01 10:31:43;;;;;;;4.00;3.20;;;;;;;;;;5042391;28;20890;-62
2023/06/01 10:34:11;;;;;;;4.20;2.90;;;30.10;58.40;;;;;;5016358;28;20612;-62
2023/06/01 10:37:16;;;;;;;12.07;3.40;;;30.20;59.40;;;;;;5040057;28;20465;-62
2023/06/01 10:39:43;;;;;;;8.07;3.13;;;29.90;59.60;;;;;;5027734;28;20490;-62
2023/06/01 10:42:37;;;;;;;10.97;3.20;;;30.10;59.20;;;;;;5037960;28;20536;-62
2023/06/01 10:45:05;;;;;;;5.30;3.73;;;30.10;59.60;;;;;;5040401;28;20612;-62
2023/06/01 10:47:48;;;;;;;4.03;2.60;;;30.20;59.00;;;;;;5037036;28;20504;-62
2023/06/01 10:50:21;;;;;;;6.27;2.87;;;30.20;58.00;;;;;;5038342;28;20441;-62
2023/06/01 10:52:48;;;;;;;5.67;2.87;;;30.20;57.20;;;;;;5024115;28;20985;-62
2023/06/01 10:55:24;;;;;;;5.50;2.60;;;30.20;57.70;;;;;;5049557;28;20481;-62
2023/06/01 10:57:51;;;;;;;4.03;2.40;;;30.40;58.90;;;;;;5028303;28;20472;-62
2023/06/01 11:00:20;;;;;;;7.67;3.03;;;;;;;;;;5061758;28;20479;-62
2023/06/01 11:02:54;;;;;;;10.57;3.50;;;30.60;57.60;;;;;;5031990;28;20479;-62
2023/06/01 11:05:46;;;;;;;8.10;3.33;;;;;;;;;;5047411;28;20539;-62
2023/06/01 11:08:50;;;;;;;3.33;2.73;;;30.40;57.60;;;;;;5041554;28;20468;-63
2023/06/01 11:11:17;;;;;;;5.90;2.73;;;30.50;62.20;;;;;;5037049;28;20547;-62
2023/06/01 11:14:05;;;;;;;3.70;3.00;;;30.40;57.70;;;;;;5041673;28;20485;-62
2023/06/01 11:16:32;;;;;;;9.00;3.13;;;30.30;58.20;;;;;;5034059;28;21001;-62
2023/06/01 11:19:02;;;;;;;3.80;2.90;;;30.20;57.50;;;;;;5049206;28;20457;-62
2023/06/01 11:21:33;;;;;;;4.47;2.70;;;30.30;58.50;;;;;;5045433;28;20478;-62
2023/06/01 11:24:01;;;;;;;3.00;2.70;;;30.40;59.50;;;;;;5050155;28;20478;-62
2023/06/01 11:26:32;;;;;;;5.07;2.93;;;30.60;58.70;;;;;;5047459;28;20663;-62
2023/06/01 11:29:10;;;;;;;8.10;3.07;;;30.70;60.10;;;;;;5030942;28;20471;-62
2023/06/01 11:31:40;;;;;;;12.77;3.20;;;30.60;58.10;;;;;;5041600;28;20456;-63
2023/06/01 11:34:09;;;;;;;8.90;3.10;;;30.80;58.70;;;;;;5043181;28;20468;-63
2023/06/01 11:36:41;;;;;;;6.10;3.37;;;30.90;58.50;;;;;;5043683;28;20466;-62
2023/06/01 11:39:21;;;;;;;3.40;2.90;;;31.10;58.60;;;;;;5038420;28;20988;-62
2023/06/01 11:41:49;;;;;;;6.27;3.00;;;31.10;57.90;;;;;;5050422;28;20882;-63
2023/06/01 11:44:17;;;;;;;10.30;4.50;;;31.10;57.40;;;;;;5055545;28;20477;-63
2023/06/01 11:46:54;;;;;;;10.17;3.40;;;31.20;58.60;;;;;;5050210;28;21027;-61
2023/06/01 11:49:23;;;;;;;9.47;3.17;;;31.20;57.80;;;;;;5046789;28;20560;-62
2023/06/01 11:51:52;;;;;;;21.33;4.30;;;31.30;57.50;;;;;;5041966;28;20581;-62
2023/06/01 11:54:23;;;;;;;6.30;3.13;;;31.30;58.50;;;;;;5044975;28;20495;-63
2023/06/01 11:56:51;;;;;;;6.27;2.87;;;31.20;57.60;;;;;;5052002;28;20498;-63
2023/06/01 11:59:19;;;;;;;6.40;3.07;;;31.00;57.30;;;;;;5024536;28;20487;-63
2023/06/01 12:01:48;;;;;;;4.80;3.20;;;31.20;61.00;;;;;;5051333;28;21216;-63
2023/06/01 12:04:15;;;;;;;7.83;3.50;;;31.20;57.70;;;;;;5051632;28;20481;-62
2023/06/01 12:06:44;;;;;;;6.10;3.10;;;31.10;58.10;;;;;;5074159;28;20508;-62
2023/06/01 12:09:12;;;;;;;7.87;3.37;;;31.00;59.90;;;;;;5057723;28;20485;-63
2023/06/01 12:11:40;;;;;;;12.80;3.53;;;31.10;58.70;;;;;;5058028;28;20485;-62
2023/06/01 12:14:08;;;;;;;4.17;2.97;;;31.10;59.10;;;;;;5050768;28;21248;-62
2023/06/01 12:16:53;;;;;;;3.87;2.90;;;31.20;57.50;;;;;;5052255;28;20869;-62
2023/06/01 12:19:21;;;;;;;4.53;2.87;;;31.30;58.00;;;;;;5058955;28;20480;-62
2023/06/01 12:21:51;;;;;;;11.33;4.23;;;31.40;57.20;;;;;;5055519;28;20539;-62
2023/06/01 12:24:18;;;;;;;5.10;3.23;;;31.50;57.60;;;;;;5062117;28;20475;-62
2023/06/01 12:26:45;;;;;;;16.77;3.60;;;31.50;57.70;;;;;;5032929;28;20489;-62
2023/06/01 12:29:12;;;;;;;7.93;3.50;;;31.70;58.70;;;;;;5056800;28;20483;-62
2023/06/01 12:31:39;;;;;;;4.13;3.23;;;31.60;55.60;;;;;;5070606;28;20526;-63
2023/06/01 12:34:17;;;;;;;8.33;3.10;;;31.60;57.40;;;;;;5057851;28;20452;-63
2023/06/01 12:36:44;;;;;;;4.57;3.27;;;31.60;57.90;;;;;;5067499;28;21404;-63
2023/06/01 12:39:12;;;;;;;3.87;2.60;;;31.80;59.00;;;;;;5057346;28;20488;-63
2023/06/01 12:41:49;;;;;;;5.63;2.90;;;31.80;57.70;;;;;;5058171;28;20444;-62
2023/06/01 12:44:21;;;;;;;21.53;4.40;;;31.60;58.40;;;;;;5065577;28;20482;-62
2023/06/01 12:46:48;;;;;;;10.97;3.37;;;31.80;57.10;;;;;;5040569;28;20528;-63
2023/06/01 12:49:17;;;;;;;3.90;3.17;;;31.70;55.20;;;;;;5065173;28;20540;-63
2023/06/01 12:51:44;;;;;;;5.70;3.20;;;31.50;58.00;;;;;;5039440;28;20481;-62
2023/06/01 12:54:12;;;;;;;3.83;3.20;;;31.70;58.80;;;;;;5046146;28;20798;-63